createdAt,value
2018-12-05T00:00:10.148Z,2.67
2018-12-05T00:02:38.642Z,2.00
2018-12-05T00:05:07.090Z,1.30
2018-12-05T00:07:35.362Z,1.10
2018-12-05T00:17:00.218Z,0.90
2018-12-05T00:19:28.415Z,1.50
2018-12-05T00:21:57.639Z,0.67
2018-12-05T00:24:25.937Z,1.17
2018-12-05T00:26:54.158Z,1.17
2018-12-05T00:29:22.371Z,0.87
2018-12-05T00:31:50.799Z,3.13
2018-12-05T00:34:18.996Z,1.10
2018-12-05T00:36:47.212Z,1.33
2018-12-05T00:39:15.419Z,0.80
2018-12-05T00:41:43.731Z,0.97
2018-12-05T00:44:11.915Z,0.70
2018-12-05T00:46:40.261Z,0.77
2018-12-05T00:49:08.443Z,0.80
2018-12-05T00:51:36.653Z,0.67
2018-12-05T00:54:05.053Z,1.90
2018-12-05T00:56:33.259Z,0.80
2018-12-05T00:59:01.452Z,1.17
2018-12-05T01:01:29.669Z,1.73
2018-12-05T01:03:57.946Z,1.97
2018-12-05T01:06:26.156Z,1.07
2018-12-05T01:08:54.353Z,1.00
2018-12-05T01:11:23.715Z,1.60
2018-12-05T01:13:52.204Z,1.53
2018-12-05T01:16:20.431Z,1.00
2018-12-05T01:18:48.646Z,0.90
2018-12-05T01:21:16.874Z,0.70
2018-12-05T01:23:45.156Z,0.90
2018-12-05T01:26:13.359Z,3.07
2018-12-05T01:28:41.648Z,1.30
2018-12-05T01:31:09.951Z,1.20
2018-12-05T01:33:38.150Z,1.00
2018-12-05T01:36:07.387Z,1.00
2018-12-05T01:38:35.606Z,1.80
2018-12-05T01:41:03.951Z,1.13
2018-12-05T01:43:37.426Z,1.70
2018-12-05T01:46:05.637Z,1.73
2018-12-05T01:48:33.855Z,1.00
2018-12-05T01:51:02.029Z,1.20
2018-12-05T01:53:30.340Z,0.63
2018-12-05T01:55:58.539Z,1.23
2018-12-05T01:58:26.753Z,1.60
2018-12-05T02:00:54.963Z,1.00
2018-12-05T02:03:23.219Z,1.27
2018-12-05T02:05:51.414Z,1.30
2018-12-05T02:08:19.716Z,1.40
2018-12-05T02:10:47.904Z,1.10
2018-12-05T02:13:16.106Z,1.00
2018-12-05T02:15:44.303Z,0.80
2018-12-05T02:18:12.519Z,1.07
2018-12-05T02:20:40.695Z,0.77
2018-12-05T02:23:08.995Z,0.93
2018-12-05T02:25:37.167Z,0.70
2018-12-05T02:28:05.460Z,1.03
2018-12-05T02:30:33.722Z,0.80
2018-12-05T02:33:01.955Z,1.03
2018-12-05T02:35:30.180Z,0.93
2018-12-05T02:37:58.470Z,1.90
2018-12-05T02:40:26.688Z,1.47
2018-12-05T02:42:54.898Z,1.20
2018-12-05T02:45:23.091Z,1.00
2018-12-05T02:47:51.670Z,0.90
2018-12-05T02:50:19.877Z,0.70
2018-12-05T02:53:50.960Z,1.00
2018-12-05T02:56:19.308Z,1.90
2018-12-05T02:58:47.615Z,1.40
2018-12-05T03:01:15.849Z,1.10
2018-12-05T03:03:44.052Z,0.73
2018-12-05T03:06:12.242Z,1.40
2018-12-05T03:08:40.465Z,0.70
2018-12-05T03:11:08.645Z,1.27
2018-12-05T03:13:36.850Z,0.70
2018-12-05T03:16:05.039Z,2.20
2018-12-05T03:18:33.234Z,1.40
2018-12-05T03:21:01.411Z,1.00
2018-12-05T03:23:29.616Z,1.23
2018-12-05T03:25:57.795Z,1.00
2018-12-05T03:28:26.009Z,2.33
2018-12-05T03:30:54.284Z,1.27
2018-12-05T03:33:22.968Z,0.80
2018-12-05T03:35:51.143Z,1.80
2018-12-05T03:38:19.380Z,1.33
2018-12-05T03:40:47.752Z,1.10
2018-12-05T03:43:16.059Z,2.23
2018-12-05T03:45:44.260Z,1.33
2018-12-05T03:48:12.472Z,1.43
2018-12-05T03:50:40.655Z,1.03
2018-12-05T03:53:08.855Z,1.07
2018-12-05T03:55:37.095Z,1.30
2018-12-05T03:58:05.684Z,1.00
2018-12-05T04:00:33.877Z,1.63
2018-12-05T04:03:02.093Z,1.10
2018-12-05T04:05:30.274Z,1.13
2018-12-05T04:07:58.471Z,1.73
2018-12-05T04:10:26.752Z,1.37
2018-12-05T04:12:54.923Z,1.53
2018-12-05T04:15:23.224Z,1.53
2018-12-05T04:17:51.409Z,0.80
2018-12-05T04:20:19.620Z,1.03
2018-12-05T04:22:47.798Z,1.60
2018-12-05T04:25:16.187Z,1.77
2018-12-05T04:27:45.363Z,2.50
2018-12-05T04:30:13.648Z,3.37
2018-12-05T04:32:41.868Z,1.50
2018-12-05T04:35:10.075Z,2.37
2018-12-05T04:37:38.259Z,2.33
2018-12-05T04:40:06.647Z,1.80
2018-12-05T04:42:34.914Z,1.10
2018-12-05T04:45:03.287Z,1.30
2018-12-05T04:47:31.496Z,1.20
2018-12-05T04:49:59.694Z,1.30
2018-12-05T04:52:27.875Z,2.03
2018-12-05T04:54:56.165Z,1.10
2018-12-05T04:57:24.415Z,1.40
2018-12-05T04:59:52.625Z,1.20
2018-12-05T05:02:20.912Z,1.33
2018-12-05T05:04:49.114Z,1.27
2018-12-05T05:07:17.410Z,2.47
2018-12-05T05:09:45.708Z,2.20
2018-12-05T05:12:13.988Z,1.40
2018-12-05T05:14:42.246Z,1.33
2018-12-05T05:17:10.457Z,1.27
2018-12-05T05:19:38.760Z,1.03
2018-12-05T05:22:06.998Z,1.00
2018-12-05T05:24:35.222Z,1.17
2018-12-05T05:27:03.477Z,1.97
2018-12-05T05:29:31.722Z,2.20
2018-12-05T05:31:59.983Z,1.93
2018-12-05T05:34:28.202Z,2.67
2018-12-05T05:36:56.397Z,5.20
2018-12-05T05:39:24.619Z,5.27
2018-12-05T05:41:52.784Z,7.73
2018-12-05T05:44:20.980Z,9.10
2018-12-05T05:46:49.239Z,2.80
2018-12-05T05:49:17.488Z,5.10
2018-12-05T05:51:45.672Z,5.03
2018-12-05T05:54:13.870Z,2.97
2018-12-05T05:56:42.043Z,7.00
2018-12-05T05:59:10.256Z,6.93
2018-12-05T06:01:38.644Z,6.03
2018-12-05T06:04:06.855Z,4.10
2018-12-05T06:06:36.437Z,6.37
2018-12-05T06:09:07.294Z,7.23
2018-12-05T06:11:35.492Z,5.37
2018-12-05T06:14:03.755Z,6.50
2018-12-05T06:16:31.949Z,6.73
2018-12-05T06:19:01.111Z,5.47
2018-12-05T06:21:29.404Z,6.37
2018-12-05T06:23:57.583Z,6.40
2018-12-05T06:26:26.628Z,10.33
2018-12-05T06:28:55.925Z,8.97
2018-12-05T06:31:24.216Z,7.80
2018-12-05T06:33:52.418Z,7.33
2018-12-05T06:36:20.663Z,5.77
2018-12-05T06:38:49.065Z,10.60
2018-12-05T06:41:17.304Z,12.20
2018-12-05T06:43:45.487Z,8.43
2018-12-05T06:48:56.383Z,9.93
2018-12-05T06:51:24.600Z,13.27
2018-12-05T06:53:52.875Z,12.47
2018-12-05T06:56:21.096Z,9.93
2018-12-05T06:58:49.292Z,8.67
2018-12-05T07:01:17.521Z,10.13
2018-12-05T07:03:45.706Z,11.60
2018-12-05T07:06:13.956Z,11.00
2018-12-05T07:08:42.143Z,10.53
2018-12-05T07:11:10.479Z,13.10
2018-12-05T07:13:38.716Z,11.07
2018-12-05T07:16:07.007Z,10.27
2018-12-05T07:18:35.242Z,14.13
2018-12-05T07:21:03.585Z,12.60
2018-12-05T07:23:31.900Z,11.13
2018-12-05T07:26:00.098Z,10.70
2018-12-05T07:28:28.356Z,15.27
2018-12-05T07:30:56.551Z,9.13
2018-12-05T07:33:27.879Z,11.57
2018-12-05T07:35:56.055Z,8.00
2018-12-05T07:38:24.407Z,9.17
2018-12-05T07:40:52.583Z,9.53
2018-12-05T07:43:20.780Z,9.57
2018-12-05T07:45:48.977Z,9.50
2018-12-05T07:48:17.270Z,9.13
2018-12-05T07:50:45.684Z,7.70
2018-12-05T07:53:13.859Z,8.30
2018-12-05T07:55:42.161Z,8.90
2018-12-05T07:58:10.341Z,9.47
2018-12-05T08:00:38.654Z,9.40
2018-12-05T08:03:06.847Z,8.77
2018-12-05T08:05:35.453Z,8.33
2018-12-05T08:08:03.716Z,9.97
2018-12-05T08:10:31.905Z,9.57
2018-12-05T08:13:00.119Z,8.40
2018-12-05T08:15:28.312Z,8.67
2018-12-05T08:17:56.492Z,7.50
2018-12-05T08:20:24.692Z,9.30
2018-12-05T08:22:52.971Z,8.70
2018-12-05T08:25:22.054Z,8.97
2018-12-05T08:27:51.084Z,10.77
2018-12-05T08:30:21.037Z,10.00
2018-12-05T08:32:50.094Z,7.27
2018-12-05T08:35:19.298Z,6.27
2018-12-05T08:37:49.239Z,8.93
2018-12-05T08:40:18.159Z,9.17
2018-12-05T08:42:47.242Z,11.27
2018-12-05T08:45:16.383Z,7.60
2018-12-05T08:47:45.425Z,11.47
2018-12-05T08:50:14.397Z,10.43
2018-12-05T08:52:43.066Z,9.93
2018-12-05T08:55:11.243Z,7.53
2018-12-05T08:57:39.455Z,8.43
2018-12-05T09:00:08.979Z,6.80
2018-12-05T09:02:37.201Z,6.40
2018-12-05T09:05:05.968Z,7.27
2018-12-05T09:07:34.199Z,8.60
2018-12-05T09:10:02.552Z,7.63
2018-12-05T09:12:30.783Z,7.87
2018-12-05T09:14:58.964Z,9.10
2018-12-05T09:17:27.215Z,10.30
2018-12-05T09:19:55.445Z,9.07
2018-12-05T09:22:23.682Z,6.67
2018-12-05T09:24:54.487Z,6.73
2018-12-05T09:27:23.017Z,7.57
2018-12-05T09:29:51.334Z,6.60
2018-12-05T09:32:19.658Z,7.20
2018-12-05T09:34:47.850Z,4.87
2018-12-05T09:37:16.031Z,7.03
2018-12-05T09:39:44.223Z,5.67
2018-12-05T09:42:12.446Z,5.13
2018-12-05T09:44:40.626Z,6.77
2018-12-05T09:47:15.735Z,4.93
2018-12-05T09:49:39.323Z,5.33
2018-12-05T09:52:07.571Z,4.83
2018-12-05T09:54:35.828Z,4.70
2018-12-05T09:57:04.039Z,4.70
2018-12-05T09:59:32.212Z,5.70
2018-12-05T10:02:00.933Z,4.17
2018-12-05T10:04:29.140Z,6.93
2018-12-05T10:06:57.556Z,5.33
2018-12-05T10:09:26.741Z,4.77
2018-12-05T10:11:54.952Z,5.60
2018-12-05T10:14:23.160Z,5.17
2018-12-05T10:16:51.371Z,4.87
2018-12-05T10:19:19.652Z,7.40
2018-12-05T10:21:47.875Z,5.73
2018-12-05T10:24:16.131Z,4.33
2018-12-05T10:26:44.323Z,4.63
2018-12-05T10:29:12.500Z,7.23
2018-12-05T10:31:44.072Z,5.13
2018-12-05T10:34:10.871Z,5.37
2018-12-05T10:36:39.154Z,5.67
2018-12-05T10:39:07.691Z,4.40
2018-12-05T10:41:35.938Z,6.80
2018-12-05T10:44:04.323Z,4.60
2018-12-05T10:46:32.532Z,5.27
2018-12-05T10:49:00.713Z,3.97
2018-12-05T10:51:29.313Z,4.20
2018-12-05T10:53:57.477Z,4.27
2018-12-05T10:56:25.762Z,3.87
2018-12-05T10:58:53.957Z,2.97
2018-12-05T11:01:28.303Z,3.03
2018-12-05T11:03:56.460Z,3.53
2018-12-05T11:06:30.199Z,3.43
2018-12-05T11:09:04.996Z,4.37
2018-12-05T11:11:38.821Z,5.50
2018-12-05T11:14:13.598Z,4.00
2018-12-05T11:16:49.654Z,3.57
2018-12-05T11:19:23.352Z,4.20
2018-12-05T11:21:57.303Z,4.50
2018-12-05T11:24:30.981Z,4.83
2018-12-05T11:26:59.172Z,3.53
2018-12-05T11:29:27.351Z,5.47
2018-12-05T11:31:55.549Z,3.73
2018-12-05T11:34:23.772Z,4.20
2018-12-05T11:36:51.975Z,6.37
2018-12-05T11:39:20.141Z,4.07
2018-12-05T11:41:48.344Z,4.50
2018-12-05T11:44:16.495Z,3.40
2018-12-05T11:46:44.701Z,4.33
2018-12-05T11:49:12.881Z,4.80
2018-12-05T11:51:41.088Z,3.80
2018-12-05T11:54:09.283Z,4.03
2018-12-05T11:56:37.450Z,5.83
2018-12-05T11:59:05.736Z,4.13
2018-12-05T12:01:33.927Z,3.40
2018-12-05T12:04:02.311Z,2.93
2018-12-05T12:06:30.536Z,4.00
2018-12-05T12:08:58.795Z,3.10
2018-12-05T12:11:26.991Z,3.90
2018-12-05T12:13:55.276Z,2.83
2018-12-05T12:16:23.568Z,3.07
2018-12-05T12:18:51.782Z,3.10
2018-12-05T12:21:19.991Z,4.23
2018-12-05T12:23:48.211Z,2.47
2018-12-05T12:26:16.521Z,3.17
2018-12-05T12:28:46.808Z,3.50
2018-12-05T12:31:14.980Z,3.63
2018-12-05T12:33:43.226Z,3.53
2018-12-05T12:36:13.938Z,4.03
2018-12-05T12:38:42.184Z,3.23
2018-12-05T12:41:10.476Z,3.70
2018-12-05T12:43:38.652Z,3.23
2018-12-05T12:46:06.836Z,2.47
2018-12-05T12:48:35.032Z,3.00
2018-12-05T12:51:09.963Z,4.03
2018-12-05T12:53:38.163Z,3.60
2018-12-05T12:56:06.340Z,3.20
2018-12-05T12:58:34.538Z,3.63
2018-12-05T13:01:02.725Z,2.63
2018-12-05T13:03:31.240Z,2.80
2018-12-05T13:05:59.511Z,4.23
2018-12-05T13:08:27.718Z,1.90
2018-12-05T13:10:55.903Z,2.50
2018-12-05T13:13:24.108Z,2.83
2018-12-05T13:15:52.279Z,2.70
2018-12-05T13:18:20.564Z,2.17
2018-12-05T13:20:48.740Z,2.03
2018-12-05T13:23:16.936Z,2.30
2018-12-05T13:25:45.113Z,3.53
2018-12-05T13:28:13.366Z,3.43
2018-12-05T13:30:41.587Z,3.20
2018-12-05T13:33:09.797Z,3.67
2018-12-05T13:35:38.073Z,4.30
2018-12-05T13:38:06.267Z,3.00
2018-12-05T13:40:34.432Z,2.07
2018-12-05T13:43:03.919Z,2.10
2018-12-05T13:45:32.193Z,2.87
2018-12-05T13:48:00.485Z,2.57
2018-12-05T13:50:29.253Z,1.70
2018-12-05T13:52:58.310Z,2.20
2018-12-05T13:55:26.635Z,2.67
2018-12-05T13:57:54.811Z,3.10
2018-12-05T14:00:23.102Z,3.33
2018-12-05T14:02:51.288Z,2.10
2018-12-05T14:05:19.495Z,2.03
2018-12-05T14:07:47.707Z,1.60
2018-12-05T14:10:15.991Z,3.37
2018-12-05T14:12:44.162Z,2.33
2018-12-05T14:15:12.495Z,2.40
2018-12-05T14:17:40.681Z,3.00
2018-12-05T14:20:09.382Z,3.87
2018-12-05T14:22:37.567Z,3.10
2018-12-05T14:25:07.267Z,3.60
2018-12-05T14:27:35.612Z,4.30
2018-12-05T14:30:04.646Z,2.90
2018-12-05T14:32:33.225Z,3.87
2018-12-05T14:35:01.445Z,3.17
2018-12-05T14:37:29.688Z,2.60
2018-12-05T14:39:57.881Z,2.97
2018-12-05T14:42:26.064Z,4.87
2018-12-05T14:44:54.387Z,2.97
2018-12-05T14:47:22.799Z,3.10
2018-12-05T14:49:51.032Z,3.40
2018-12-05T14:52:19.303Z,3.53
2018-12-05T14:54:47.595Z,4.50
2018-12-05T14:57:15.828Z,3.73
2018-12-05T14:59:44.067Z,3.33
2018-12-05T15:02:12.346Z,3.03
2018-12-05T15:04:40.553Z,3.20
2018-12-05T15:07:08.759Z,3.40
2018-12-05T15:09:36.967Z,3.23
2018-12-05T15:12:05.139Z,4.00
2018-12-05T15:14:33.341Z,6.47
2018-12-05T15:17:02.343Z,5.20
2018-12-05T15:19:30.547Z,3.93
2018-12-05T15:21:58.735Z,4.60
2018-12-05T15:24:27.115Z,3.93
2018-12-05T15:26:55.516Z,3.97
2018-12-05T15:29:25.682Z,4.80
2018-12-05T15:31:54.032Z,4.60
2018-12-05T15:34:22.320Z,6.37
2018-12-05T15:36:50.868Z,6.10
2018-12-05T15:39:19.132Z,4.17
2018-12-05T15:41:47.324Z,5.03
2018-12-05T15:44:15.517Z,4.77
2018-12-05T15:46:43.736Z,5.47
2018-12-05T15:49:11.908Z,5.33
2018-12-05T15:51:40.144Z,4.53
2018-12-05T15:54:08.322Z,5.50
2018-12-05T15:56:36.611Z,4.13
2018-12-05T15:59:05.871Z,4.93
2018-12-05T16:01:34.055Z,5.33
2018-12-05T16:04:02.231Z,4.67
2018-12-05T16:06:30.439Z,4.87
2018-12-05T16:08:58.711Z,5.37
2018-12-05T16:11:26.926Z,6.23
2018-12-05T16:13:55.103Z,6.23
2018-12-05T16:16:23.296Z,6.03
2018-12-05T16:18:51.493Z,5.97
2018-12-05T16:21:19.692Z,5.00
2018-12-05T16:23:47.872Z,4.97
2018-12-05T16:26:16.260Z,3.80
2018-12-05T16:28:44.427Z,4.10
2018-12-05T16:31:12.703Z,3.20
2018-12-05T16:33:40.942Z,3.57
2018-12-05T16:36:11.341Z,4.50
2018-12-05T16:38:39.413Z,5.67
2018-12-05T16:41:07.648Z,4.93
2018-12-05T16:43:35.821Z,2.77
2018-12-05T16:46:04.224Z,4.60
2018-12-05T16:48:32.426Z,4.63
2018-12-05T16:51:00.647Z,5.77
2018-12-05T16:53:28.836Z,2.63
2018-12-05T16:55:57.055Z,5.43
2018-12-05T16:58:25.256Z,4.70
2018-12-05T17:00:53.470Z,3.33
2018-12-05T17:03:22.806Z,5.50
2018-12-05T17:05:51.002Z,3.70
2018-12-05T17:08:19.191Z,4.47
2018-12-05T17:10:47.490Z,4.43
2018-12-05T17:13:15.761Z,6.37
2018-12-05T17:15:44.002Z,3.50
2018-12-05T17:18:12.503Z,3.50
2018-12-05T17:20:40.835Z,3.10
2018-12-05T17:23:09.115Z,2.53
2018-12-05T17:25:37.602Z,2.83
2018-12-05T17:28:05.868Z,3.37
2018-12-05T17:30:34.198Z,2.27
2018-12-05T17:33:02.526Z,6.53
2018-12-05T17:35:30.708Z,3.07
2018-12-05T17:37:58.912Z,4.60
2018-12-05T17:40:27.279Z,3.60
2018-12-05T17:42:55.562Z,4.10
2018-12-05T17:45:24.551Z,2.67
2018-12-05T17:47:52.855Z,4.00
2018-12-05T17:50:21.049Z,4.87
2018-12-05T17:52:49.271Z,3.57
2018-12-05T17:55:20.582Z,2.47
2018-12-05T17:57:48.785Z,3.83
2018-12-05T18:00:17.061Z,2.87
2018-12-05T18:02:45.300Z,3.17
2018-12-05T18:05:13.673Z,4.63
2018-12-05T18:07:42.340Z,3.73
2018-12-05T18:10:10.732Z,5.20
2018-12-05T18:12:38.999Z,4.87
2018-12-05T18:15:07.376Z,3.77
2018-12-05T18:17:35.656Z,5.13
2018-12-05T18:20:04.315Z,5.67
2018-12-05T18:22:33.214Z,3.20
2018-12-05T18:25:01.440Z,4.70
2018-12-05T18:27:29.762Z,4.97
2018-12-05T18:29:58.046Z,5.60
2018-12-05T18:32:26.333Z,4.67
2018-12-05T18:34:54.581Z,4.87
2018-12-05T18:37:22.771Z,4.23
2018-12-05T18:39:51.000Z,6.00
2018-12-05T18:42:19.547Z,4.70
2018-12-05T18:44:47.826Z,4.57
2018-12-05T18:47:16.180Z,5.47
2018-12-05T18:49:47.979Z,5.23
2018-12-05T18:52:16.386Z,5.20
2018-12-05T18:54:44.697Z,5.10
2018-12-05T18:57:13.398Z,5.80
2018-12-05T18:59:41.579Z,5.10
2018-12-05T19:02:09.884Z,4.80
2018-12-05T19:04:38.288Z,5.87
2018-12-05T19:07:06.617Z,4.90
2018-12-05T19:09:34.889Z,5.33
2018-12-05T19:12:03.301Z,4.30
2018-12-05T19:14:36.911Z,5.83
2018-12-05T19:17:05.208Z,5.97
2018-12-05T19:19:33.402Z,3.33
2018-12-05T19:22:01.657Z,6.53
2018-12-05T19:24:29.852Z,3.60
2018-12-05T19:27:01.114Z,4.47
2018-12-05T19:29:29.343Z,4.00
2018-12-05T19:31:57.583Z,3.47
2018-12-05T19:34:26.800Z,4.77
2018-12-05T19:36:55.024Z,3.77
2018-12-05T19:39:24.524Z,4.43
2018-12-05T19:41:54.524Z,4.40
2018-12-05T19:44:25.745Z,4.13
2018-12-05T19:46:55.781Z,3.97
2018-12-05T19:49:27.212Z,4.57
2018-12-05T19:51:56.381Z,4.53
2018-12-05T19:54:26.705Z,5.53
2018-12-05T19:56:55.568Z,4.10
2018-12-05T19:59:25.620Z,4.57
2018-12-05T20:01:54.646Z,4.37
2018-12-05T20:04:23.399Z,7.40
2018-12-05T20:06:52.092Z,4.23
2018-12-05T20:09:26.275Z,4.17
2018-12-05T20:11:54.835Z,4.60
2018-12-05T20:14:30.300Z,4.27
2018-12-05T20:16:59.258Z,5.63
2018-12-05T20:19:27.511Z,4.43
2018-12-05T20:21:55.851Z,3.80
2018-12-05T20:24:24.031Z,4.53
2018-12-05T20:26:53.695Z,5.37
2018-12-05T20:29:21.911Z,4.63
2018-12-05T20:31:50.157Z,3.87
2018-12-05T20:34:18.453Z,4.60
2018-12-05T20:36:46.703Z,6.17
2018-12-05T20:39:14.875Z,5.97
2018-12-05T20:41:45.511Z,7.03
2018-12-05T20:44:13.709Z,6.53
2018-12-05T20:46:41.939Z,7.13
2018-12-05T20:49:11.610Z,9.27
2018-12-05T20:51:39.875Z,9.70
2018-12-05T20:54:08.073Z,7.80
2018-12-05T20:56:36.323Z,6.77
2018-12-05T20:59:04.626Z,8.30
2018-12-05T21:01:33.419Z,6.63
2018-12-05T21:04:16.521Z,6.20
2018-12-05T21:06:44.732Z,5.77
2018-12-05T21:09:13.016Z,6.60
2018-12-05T21:11:41.226Z,5.67
2018-12-05T21:14:09.491Z,6.73
2018-12-05T21:16:37.799Z,6.90
2018-12-05T21:19:06.094Z,6.07
2018-12-05T21:21:34.315Z,6.57
2018-12-05T21:24:02.538Z,6.13
2018-12-05T21:26:30.747Z,6.90
2018-12-05T21:29:13.759Z,6.30
2018-12-05T21:31:42.068Z,5.27
2018-12-05T21:34:10.285Z,4.77
2018-12-05T21:36:38.506Z,5.67
2018-12-05T21:39:08.768Z,4.53
2018-12-05T21:41:37.043Z,5.03
2018-12-05T21:44:05.472Z,5.77
2018-12-05T21:46:33.648Z,5.67
2018-12-05T21:49:02.076Z,4.73
2018-12-05T21:51:30.318Z,4.87
2018-12-05T21:53:58.511Z,4.40
2018-12-05T21:59:24.968Z,4.40
2018-12-05T22:01:53.148Z,4.77
2018-12-05T22:04:21.460Z,5.53
2018-12-05T22:06:49.683Z,5.53
2018-12-05T22:09:17.884Z,3.90
2018-12-05T22:11:46.244Z,3.37
2018-12-05T22:14:14.516Z,5.50
2018-12-05T22:16:42.712Z,3.83
2018-12-05T22:19:10.942Z,4.50
2018-12-05T22:21:39.212Z,4.37
2018-12-05T22:24:07.434Z,4.23
2018-12-05T22:26:35.727Z,4.33
2018-12-05T22:29:04.147Z,3.37
2018-12-05T22:31:32.328Z,3.50
2018-12-05T22:34:00.540Z,2.93
2018-12-05T22:36:30.099Z,2.50
2018-12-05T22:38:58.564Z,3.57
2018-12-05T22:41:26.865Z,3.13
2018-12-05T22:43:55.240Z,4.00
2018-12-05T22:46:23.457Z,3.03
2018-12-05T22:48:51.742Z,2.97
2018-12-05T22:51:20.047Z,2.97
2018-12-05T22:53:48.283Z,3.93
2018-12-05T22:56:16.467Z,3.07
2018-12-05T22:58:45.060Z,2.90
2018-12-05T23:01:13.515Z,3.77
2018-12-05T23:03:41.874Z,3.50
2018-12-05T23:06:10.151Z,4.53
2018-12-05T23:08:39.057Z,2.90
2018-12-05T23:11:07.235Z,3.30
2018-12-05T23:13:35.617Z,3.63
2018-12-05T23:16:05.607Z,5.43
2018-12-05T23:18:33.900Z,4.10
2018-12-05T23:21:02.098Z,4.77
2018-12-05T23:23:30.333Z,4.80
2018-12-05T23:25:58.552Z,3.03
2018-12-05T23:28:26.747Z,3.73
2018-12-05T23:30:54.934Z,3.93
2018-12-05T23:33:23.140Z,5.30
2018-12-05T23:35:51.323Z,3.03
2018-12-05T23:38:19.538Z,3.63
2018-12-05T23:40:47.712Z,4.03
2018-12-05T23:43:16.104Z,4.07
2018-12-05T23:45:44.323Z,5.33
2018-12-05T23:48:13.784Z,8.20
2018-12-05T23:50:42.564Z,3.93
2018-12-05T23:53:10.826Z,5.97
2018-12-05T23:55:39.436Z,4.13
2018-12-05T23:58:07.648Z,5.30
